KPKB

Mid-Ohio Valley Regional Airport

Parkersburg, West Virginia, USA
METAR KPKB 181453Z 20012G19KT 10SM CLR M11/M14 A3039 RMK AO2 SLP309 T11061144 51005
Observed Flight Rules
Jan-18 @ 14:53 UTC (36 minutes ago) Visual Flight Rules
Wind Visibility Clouds
200° at 12 knots
 Gusting to 19 knots
10 miles
  • Clear skies
Temperatures Readings
Current -11°C / 12°F
Dewpoint -14°C / 7°F
Humidity 79%
Altimeter 30.39" Hg
Pressure 1030.9 hPa
Elevation 262
METAR KPKB 181453Z 20012G19KT 10SM CLR M11/M14 A3039 RMK AO2 SLP309 T11061144 51005
Observed Flight Rules
Jan-18 @ 14:53 UTC
(36 minutes ago)
VFR
Wind Visibility
200° at 12 knots
 Gusting to 19 knots
10 miles
Clouds
  • Clear skies
Temperature Dewpoint
-11°C / 12°F -14°C / 7°F
Humidity Altimeter Pressure
79% 30.39" Hg 1030.9 hPa